sensor_id;sensor_type;location;lat;lon;timestamp;temperature;humidity
71879;DHT22;59755;43.834;4.364;2023-04-02T00:01:42;11.60;53.70
71879;DHT22;59755;43.834;4.364;2023-04-02T00:04:15;11.60;53.50
71879;DHT22;59755;43.834;4.364;2023-04-02T00:06:52;11.60;53.50
71879;DHT22;59755;43.834;4.364;2023-04-02T00:09:28;11.60;53.80
71879;DHT22;59755;43.834;4.364;2023-04-02T00:11:54;11.60;53.60
71879;DHT22;59755;43.834;4.364;2023-04-02T00:14:21;11.60;53.70
71879;DHT22;59755;43.834;4.364;2023-04-02T00:16:47;11.60;54.10
71879;DHT22;59755;43.834;4.364;2023-04-02T00:19:56;11.50;54.30
71879;DHT22;59755;43.834;4.364;2023-04-02T00:22:03;11.50;54.30
71879;DHT22;59755;43.834;4.364;2023-04-02T00:24:30;11.50;54.50
71879;DHT22;59755;43.834;4.364;2023-04-02T00:26:57;11.50;54.40
71879;DHT22;59755;43.834;4.364;2023-04-02T00:29:22;11.50;54.40
71879;DHT22;59755;43.834;4.364;2023-04-02T00:31:51;11.40;54.50
71879;DHT22;59755;43.834;4.364;2023-04-02T00:34:21;11.40;54.50
71879;DHT22;59755;43.834;4.364;2023-04-02T00:36:48;11.40;54.90
71879;DHT22;59755;43.834;4.364;2023-04-02T00:39:18;11.20;55.40
71879;DHT22;59755;43.834;4.364;2023-04-02T00:41:45;11.10;55.60
71879;DHT22;59755;43.834;4.364;2023-04-02T00:44:13;11.10;55.90
71879;DHT22;59755;43.834;4.364;2023-04-02T00:46:41;11.10;55.70
71879;DHT22;59755;43.834;4.364;2023-04-02T00:51:47;11.10;56.00
71879;DHT22;59755;43.834;4.364;2023-04-02T00:54:13;11.10;56.10
71879;DHT22;59755;43.834;4.364;2023-04-02T00:56:46;11.10;56.00
71879;DHT22;59755;43.834;4.364;2023-04-02T01:01:44;11.10;56.40
71879;DHT22;59755;43.834;4.364;2023-04-02T01:07:11;10.90;56.90
71879;DHT22;59755;43.834;4.364;2023-04-02T01:09:54;10.90;57.20
71879;DHT22;59755;43.834;4.364;2023-04-02T01:17:18;10.80;57.30
71879;DHT22;59755;43.834;4.364;2023-04-02T01:20:02;10.80;57.20
71879;DHT22;59755;43.834;4.364;2023-04-02T01:22:40;10.90;57.30
71879;DHT22;59755;43.834;4.364;2023-04-02T01:25:12;10.90;56.90
71879;DHT22;59755;43.834;4.364;2023-04-02T01:27:43;11.00;56.60
71879;DHT22;59755;43.834;4.364;2023-04-02T01:30:10;11.00;56.40
71879;DHT22;59755;43.834;4.364;2023-04-02T01:32:36;11.00;56.30
71879;DHT22;59755;43.834;4.364;2023-04-02T01:35:03;11.00;56.20
71879;DHT22;59755;43.834;4.364;2023-04-02T01:45:19;11.10;55.70
71879;DHT22;59755;43.834;4.364;2023-04-02T01:47:47;11.10;55.30
71879;DHT22;59755;43.834;4.364;2023-04-02T01:52:49;11.20;54.50
71879;DHT22;59755;43.834;4.364;2023-04-02T01:55:17;11.30;54.20
71879;DHT22;59755;43.834;4.364;2023-04-02T01:57:44;11.40;54.00
71879;DHT22;59755;43.834;4.364;2023-04-02T02:00:12;11.40;53.90
71879;DHT22;59755;43.834;4.364;2023-04-02T02:02:39;11.50;53.90
71879;DHT22;59755;43.834;4.364;2023-04-02T02:05:08;11.50;53.90
71879;DHT22;59755;43.834;4.364;2023-04-02T02:07:36;11.50;53.50
71879;DHT22;59755;43.834;4.364;2023-04-02T02:10:02;11.50;53.50
71879;DHT22;59755;43.834;4.364;2023-04-02T02:12:28;11.60;53.50
71879;DHT22;59755;43.834;4.364;2023-04-02T02:14:53;11.60;53.40
71879;DHT22;59755;43.834;4.364;2023-04-02T02:17:22;11.60;53.30
71879;DHT22;59755;43.834;4.364;2023-04-02T02:19:54;11.60;53.50
71879;DHT22;59755;43.834;4.364;2023-04-02T02:24:46;11.60;53.20
71879;DHT22;59755;43.834;4.364;2023-04-02T02:29:45;11.60;53.00
71879;DHT22;59755;43.834;4.364;2023-04-02T02:32:13;11.60;53.00
71879;DHT22;59755;43.834;4.364;2023-04-02T02:34:42;11.60;53.00
71879;DHT22;59755;43.834;4.364;2023-04-02T02:39:42;11.60;53.10
71879;DHT22;59755;43.834;4.364;2023-04-02T02:44:35;11.60;53.00
71879;DHT22;59755;43.834;4.364;2023-04-02T02:47:09;11.50;53.00
71879;DHT22;59755;43.834;4.364;2023-04-02T02:49:38;11.50;53.20
71879;DHT22;59755;43.834;4.364;2023-04-02T02:54:33;11.50;53.20
71879;DHT22;59755;43.834;4.364;2023-04-02T02:57:02;11.50;53.00
71879;DHT22;59755;43.834;4.364;2023-04-02T02:59:28;11.50;53.20
71879;DHT22;59755;43.834;4.364;2023-04-02T03:01:54;11.40;53.40
71879;DHT22;59755;43.834;4.364;2023-04-02T03:04:21;11.50;53.30
71879;DHT22;59755;43.834;4.364;2023-04-02T03:06:49;11.50;53.20
71879;DHT22;59755;43.834;4.364;2023-04-02T03:12:05;11.60;53.10
71879;DHT22;59755;43.834;4.364;2023-04-02T03:14:34;11.60;53.00
71879;DHT22;59755;43.834;4.364;2023-04-02T03:17:03;11.60;53.00
71879;DHT22;59755;43.834;4.364;2023-04-02T03:22:07;11.60;52.90
71879;DHT22;59755;43.834;4.364;2023-04-02T03:29:34;11.60;52.80
71879;DHT22;59755;43.834;4.364;2023-04-02T03:32:19;11.70;52.90
71879;DHT22;59755;43.834;4.364;2023-04-02T03:34:46;11.60;53.00
71879;DHT22;59755;43.834;4.364;2023-04-02T03:39:41;11.70;52.70
71879;DHT22;59755;43.834;4.364;2023-04-02T03:42:09;11.70;52.60
71879;DHT22;59755;43.834;4.364;2023-04-02T03:44:43;11.70;52.60
71879;DHT22;59755;43.834;4.364;2023-04-02T03:49:56;11.70;52.60
71879;DHT22;59755;43.834;4.364;2023-04-02T03:52:25;11.80;52.60
71879;DHT22;59755;43.834;4.364;2023-04-02T03:54:52;11.70;52.70
71879;DHT22;59755;43.834;4.364;2023-04-02T03:57:28;11.60;52.70
71879;DHT22;59755;43.834;4.364;2023-04-02T04:02:46;11.60;52.70
71879;DHT22;59755;43.834;4.364;2023-04-02T04:08:05;11.70;52.70
71879;DHT22;59755;43.834;4.364;2023-04-02T04:10:32;11.70;52.80
71879;DHT22;59755;43.834;4.364;2023-04-02T04:13:04;11.70;52.80
71879;DHT22;59755;43.834;4.364;2023-04-02T04:16:05;11.70;52.70
71879;DHT22;59755;43.834;4.364;2023-04-02T04:18:25;11.70;52.70
71879;DHT22;59755;43.834;4.364;2023-04-02T04:21:10;11.70;52.70
71879;DHT22;59755;43.834;4.364;2023-04-02T04:23:39;11.70;52.80
71879;DHT22;59755;43.834;4.364;2023-04-02T04:26:18;11.70;52.80
71879;DHT22;59755;43.834;4.364;2023-04-02T04:31:33;11.60;53.10
71879;DHT22;59755;43.834;4.364;2023-04-02T04:34:13;11.50;53.30
71879;DHT22;59755;43.834;4.364;2023-04-02T04:36:41;11.50;53.10
71879;DHT22;59755;43.834;4.364;2023-04-02T04:39:16;11.50;53.20
71879;DHT22;59755;43.834;4.364;2023-04-02T04:41:45;11.50;53.40
71879;DHT22;59755;43.834;4.364;2023-04-02T04:47:25;11.50;53.30
71879;DHT22;59755;43.834;4.364;2023-04-02T04:54:40;11.50;53.30
71879;DHT22;59755;43.834;4.364;2023-04-02T04:57:15;11.50;53.30
71879;DHT22;59755;43.834;4.364;2023-04-02T04:59:46;11.60;53.10
71879;DHT22;59755;43.834;4.364;2023-04-02T05:02:18;11.50;53.20
71879;DHT22;59755;43.834;4.364;2023-04-02T05:04:47;11.60;53.20
71879;DHT22;59755;43.834;4.364;2023-04-02T05:07:34;11.60;53.40
71879;DHT22;59755;43.834;4.364;2023-04-02T05:13:08;11.50;53.20
71879;DHT22;59755;43.834;4.364;2023-04-02T05:15:57;11.60;53.30
71879;DHT22;59755;43.834;4.364;2023-04-02T05:23:25;11.50;53.60
71879;DHT22;59755;43.834;4.364;2023-04-02T05:25:52;11.50;53.60
71879;DHT22;59755;43.834;4.364;2023-04-02T05:28:30;11.50;53.60
71879;DHT22;59755;43.834;4.364;2023-04-02T05:31:46;11.50;53.50
71879;DHT22;59755;43.834;4.364;2023-04-02T05:33:46;11.50;53.50
71879;DHT22;59755;43.834;4.364;2023-04-02T05:36:17;11.60;53.20
71879;DHT22;59755;43.834;4.364;2023-04-02T05:38:44;11.50;53.20
71879;DHT22;59755;43.834;4.364;2023-04-02T05:41:16;11.60;53.20
71879;DHT22;59755;43.834;4.364;2023-04-02T05:43:46;11.60;53.10
71879;DHT22;59755;43.834;4.364;2023-04-02T05:46:32;11.50;53.10
71879;DHT22;59755;43.834;4.364;2023-04-02T05:49:00;11.50;53.40
71879;DHT22;59755;43.834;4.364;2023-04-02T05:51:29;11.50;53.30
71879;DHT22;59755;43.834;4.364;2023-04-02T05:54:00;11.50;53.20
71879;DHT22;59755;43.834;4.364;2023-04-02T05:56:28;11.50;53.20
71879;DHT22;59755;43.834;4.364;2023-04-02T05:58:59;11.50;53.10
71879;DHT22;59755;43.834;4.364;2023-04-02T06:01:35;11.60;52.90
71879;DHT22;59755;43.834;4.364;2023-04-02T06:04:21;11.60;52.70
71879;DHT22;59755;43.834;4.364;2023-04-02T06:07:00;11.60;52.70
71879;DHT22;59755;43.834;4.364;2023-04-02T06:09:33;11.70;52.40
71879;DHT22;59755;43.834;4.364;2023-04-02T06:12:03;11.80;52.20
71879;DHT22;59755;43.834;4.364;2023-04-02T06:14:33;11.80;52.20
71879;DHT22;59755;43.834;4.364;2023-04-02T06:16:59;11.80;52.10
71879;DHT22;59755;43.834;4.364;2023-04-02T06:19:26;11.80;51.90
71879;DHT22;59755;43.834;4.364;2023-04-02T06:21:56;11.90;51.90
71879;DHT22;59755;43.834;4.364;2023-04-02T06:24:23;11.90;51.90
71879;DHT22;59755;43.834;4.364;2023-04-02T06:26:52;12.00;51.70
71879;DHT22;59755;43.834;4.364;2023-04-02T06:34:19;12.10;51.10
71879;DHT22;59755;43.834;4.364;2023-04-02T06:36:46;12.20;51.20
71879;DHT22;59755;43.834;4.364;2023-04-02T06:39:20;12.20;51.00
71879;DHT22;59755;43.834;4.364;2023-04-02T06:44:51;12.20;50.80
71879;DHT22;59755;43.834;4.364;2023-04-02T06:49:57;12.30;50.40
71879;DHT22;59755;43.834;4.364;2023-04-02T06:52:28;12.40;50.20
71879;DHT22;59755;43.834;4.364;2023-04-02T06:54:57;12.50;50.20
71879;DHT22;59755;43.834;4.364;2023-04-02T06:57:22;12.60;49.90
71879;DHT22;59755;43.834;4.364;2023-04-02T06:59:48;12.70;50.00
71879;DHT22;59755;43.834;4.364;2023-04-02T07:02:25;12.70;49.60
71879;DHT22;59755;43.834;4.364;2023-04-02T07:04:54;12.80;49.60
71879;DHT22;59755;43.834;4.364;2023-04-02T07:07:21;12.90;49.30
71879;DHT22;59755;43.834;4.364;2023-04-02T07:09:47;13.00;49.20
71879;DHT22;59755;43.834;4.364;2023-04-02T07:12:13;13.00;49.10
71879;DHT22;59755;43.834;4.364;2023-04-02T07:14:38;13.10;49.00
71879;DHT22;59755;43.834;4.364;2023-04-02T07:17:04;13.10;48.90
71879;DHT22;59755;43.834;4.364;2023-04-02T07:19:30;13.10;48.60
71879;DHT22;59755;43.834;4.364;2023-04-02T07:21:55;13.20;48.40
71879;DHT22;59755;43.834;4.364;2023-04-02T07:24:21;13.30;48.50
71879;DHT22;59755;43.834;4.364;2023-04-02T07:26:46;13.30;48.30
71879;DHT22;59755;43.834;4.364;2023-04-02T07:29:13;13.40;48.20
71879;DHT22;59755;43.834;4.364;2023-04-02T07:31:39;13.50;48.10
71879;DHT22;59755;43.834;4.364;2023-04-02T07:34:05;13.50;48.00
71879;DHT22;59755;43.834;4.364;2023-04-02T07:36:31;13.60;47.90
71879;DHT22;59755;43.834;4.364;2023-04-02T07:38:57;13.60;47.90
71879;DHT22;59755;43.834;4.364;2023-04-02T07:41:22;13.70;47.50
71879;DHT22;59755;43.834;4.364;2023-04-02T07:43:48;13.70;47.40
71879;DHT22;59755;43.834;4.364;2023-04-02T07:46:14;13.70;47.20
71879;DHT22;59755;43.834;4.364;2023-04-02T07:48:42;13.70;47.40
71879;DHT22;59755;43.834;4.364;2023-04-02T07:51:15;13.80;47.40
71879;DHT22;59755;43.834;4.364;2023-04-02T07:53:41;13.90;47.00
71879;DHT22;59755;43.834;4.364;2023-04-02T07:56:07;13.90;46.80
71879;DHT22;59755;43.834;4.364;2023-04-02T07:58:32;13.90;46.70
71879;DHT22;59755;43.834;4.364;2023-04-02T08:00:58;14.00;46.60
71879;DHT22;59755;43.834;4.364;2023-04-02T08:03:24;14.10;46.30
71879;DHT22;59755;43.834;4.364;2023-04-02T08:05:52;14.00;46.30
71879;DHT22;59755;43.834;4.364;2023-04-02T08:08:18;14.10;46.30
71879;DHT22;59755;43.834;4.364;2023-04-02T08:10:44;14.30;46.10
71879;DHT22;59755;43.834;4.364;2023-04-02T08:13:09;14.30;46.10
71879;DHT22;59755;43.834;4.364;2023-04-02T08:15:35;14.40;45.90
71879;DHT22;59755;43.834;4.364;2023-04-02T08:18:01;14.40;45.60
71879;DHT22;59755;43.834;4.364;2023-04-02T08:20:26;14.50;45.70
71879;DHT22;59755;43.834;4.364;2023-04-02T08:22:52;14.50;45.70
71879;DHT22;59755;43.834;4.364;2023-04-02T08:25:17;14.50;45.30
71879;DHT22;59755;43.834;4.364;2023-04-02T08:27:45;14.60;45.30
71879;DHT22;59755;43.834;4.364;2023-04-02T08:30:11;14.70;45.30
71879;DHT22;59755;43.834;4.364;2023-04-02T08:32:37;14.60;45.40
71879;DHT22;59755;43.834;4.364;2023-04-02T08:35:05;14.70;45.50
71879;DHT22;59755;43.834;4.364;2023-04-02T08:37:31;14.90;45.10
71879;DHT22;59755;43.834;4.364;2023-04-02T08:39:57;15.10;44.60
71879;DHT22;59755;43.834;4.364;2023-04-02T08:47:31;15.40;43.90
71879;DHT22;59755;43.834;4.364;2023-04-02T08:50:09;15.40;44.10
71879;DHT22;59755;43.834;4.364;2023-04-02T08:52:37;15.40;44.20
71879;DHT22;59755;43.834;4.364;2023-04-02T08:55:03;15.40;44.20
71879;DHT22;59755;43.834;4.364;2023-04-02T08:57:46;15.50;43.90
71879;DHT22;59755;43.834;4.364;2023-04-02T09:02:40;15.50;44.00
71879;DHT22;59755;43.834;4.364;2023-04-02T09:05:14;15.40;44.10
71879;DHT22;59755;43.834;4.364;2023-04-02T09:07:40;15.40;43.80
71879;DHT22;59755;43.834;4.364;2023-04-02T09:10:12;15.50;43.80
71879;DHT22;59755;43.834;4.364;2023-04-02T09:12:37;15.60;43.90
71879;DHT22;59755;43.834;4.364;2023-04-02T09:15:10;15.60;43.80
71879;DHT22;59755;43.834;4.364;2023-04-02T09:17:43;15.60;44.00
71879;DHT22;59755;43.834;4.364;2023-04-02T09:20:22;15.60;44.00
71879;DHT22;59755;43.834;4.364;2023-04-02T09:22:49;15.80;44.00
71879;DHT22;59755;43.834;4.364;2023-04-02T09:25:33;15.80;43.60
71879;DHT22;59755;43.834;4.364;2023-04-02T09:28:00;16.10;43.50
71879;DHT22;59755;43.834;4.364;2023-04-02T09:33:03;15.90;43.50
71879;DHT22;59755;43.834;4.364;2023-04-02T09:36:16;16.00;43.10
71879;DHT22;59755;43.834;4.364;2023-04-02T09:38:26;16.10;42.80
71879;DHT22;59755;43.834;4.364;2023-04-02T09:41:00;16.40;42.50
71879;DHT22;59755;43.834;4.364;2023-04-02T09:43:27;16.80;42.10
71879;DHT22;59755;43.834;4.364;2023-04-02T09:45:54;17.10;41.50
71879;DHT22;59755;43.834;4.364;2023-04-02T09:48:28;17.10;41.30
71879;DHT22;59755;43.834;4.364;2023-04-02T09:56:30;16.80;42.20
71879;DHT22;59755;43.834;4.364;2023-04-02T09:59:09;16.90;42.10
71879;DHT22;59755;43.834;4.364;2023-04-02T10:02:00;17.10;41.50
71879;DHT22;59755;43.834;4.364;2023-04-02T10:06:53;17.80;40.20
71879;DHT22;59755;43.834;4.364;2023-04-02T10:09:32;18.10;39.90
71879;DHT22;59755;43.834;4.364;2023-04-02T10:11:59;18.20;39.80
71879;DHT22;59755;43.834;4.364;2023-04-02T10:14:35;18.10;40.00
71879;DHT22;59755;43.834;4.364;2023-04-02T10:17:12;17.90;40.20
71879;DHT22;59755;43.834;4.364;2023-04-02T10:19:40;18.00;40.00
71879;DHT22;59755;43.834;4.364;2023-04-02T10:22:26;17.90;39.90
71879;DHT22;59755;43.834;4.364;2023-04-02T10:24:52;18.30;39.40
71879;DHT22;59755;43.834;4.364;2023-04-02T10:32:29;18.90;38.30
71879;DHT22;59755;43.834;4.364;2023-04-02T10:35:31;19.20;37.90
71879;DHT22;59755;43.834;4.364;2023-04-02T10:37:55;19.50;37.20
71879;DHT22;59755;43.834;4.364;2023-04-02T10:42:54;20.70;35.60
71879;DHT22;59755;43.834;4.364;2023-04-02T10:47:50;22.20;33.30
71879;DHT22;59755;43.834;4.364;2023-04-02T10:53:12;23.50;31.40
71879;DHT22;59755;43.834;4.364;2023-04-02T10:55:36;23.70;31.30
71879;DHT22;59755;43.834;4.364;2023-04-02T10:58:07;21.60;33.60
71879;DHT22;59755;43.834;4.364;2023-04-02T11:00:40;21.90;33.30
71879;DHT22;59755;43.834;4.364;2023-04-02T11:03:12;21.30;34.00
71879;DHT22;59755;43.834;4.364;2023-04-02T11:05:40;21.00;34.20
71879;DHT22;59755;43.834;4.364;2023-04-02T11:15:44;24.60;30.10
71879;DHT22;59755;43.834;4.364;2023-04-02T11:18:25;24.70;29.50
71879;DHT22;59755;43.834;4.364;2023-04-02T11:20:58;24.00;30.30
71879;DHT22;59755;43.834;4.364;2023-04-02T11:23:28;24.70;29.40
71879;DHT22;59755;43.834;4.364;2023-04-02T11:29:03;25.00;28.90
71879;DHT22;59755;43.834;4.364;2023-04-02T11:31:30;25.90;27.90
71879;DHT22;59755;43.834;4.364;2023-04-02T11:33:57;26.40;27.60
71879;DHT22;59755;43.834;4.364;2023-04-02T11:37:28;25.90;27.50
71879;DHT22;59755;43.834;4.364;2023-04-02T11:42:03;26.70;27.00
71879;DHT22;59755;43.834;4.364;2023-04-02T11:44:29;26.90;26.40
71879;DHT22;59755;43.834;4.364;2023-04-02T11:47:14;25.90;27.00
71879;DHT22;59755;43.834;4.364;2023-04-02T11:49:55;24.40;28.80
71879;DHT22;59755;43.834;4.364;2023-04-02T11:55:05;24.30;28.40
71879;DHT22;59755;43.834;4.364;2023-04-02T12:07:48;25.20;27.90
71879;DHT22;59755;43.834;4.364;2023-04-02T12:12:42;26.10;27.00
71879;DHT22;59755;43.834;4.364;2023-04-02T12:17:51;22.90;29.80
71879;DHT22;59755;43.834;4.364;2023-04-02T12:20:21;24.30;28.30
71879;DHT22;59755;43.834;4.364;2023-04-02T12:22:50;24.30;28.20
71879;DHT22;59755;43.834;4.364;2023-04-02T12:27:42;25.00;27.70
71879;DHT22;59755;43.834;4.364;2023-04-02T12:30:12;25.20;27.30
71879;DHT22;59755;43.834;4.364;2023-04-02T12:32:38;22.70;30.20
71879;DHT22;59755;43.834;4.364;2023-04-02T12:35:04;22.90;29.90
71879;DHT22;59755;43.834;4.364;2023-04-02T12:37:30;23.00;29.90
71879;DHT22;59755;43.834;4.364;2023-04-02T12:40:00;24.50;28.00
71879;DHT22;59755;43.834;4.364;2023-04-02T12:42:31;24.20;28.20
71879;DHT22;59755;43.834;4.364;2023-04-02T12:44:57;24.90;27.70
71879;DHT22;59755;43.834;4.364;2023-04-02T12:47:22;25.60;26.90
71879;DHT22;59755;43.834;4.364;2023-04-02T12:49:48;24.70;27.70
71879;DHT22;59755;43.834;4.364;2023-04-02T12:52:17;23.50;29.20
71879;DHT22;59755;43.834;4.364;2023-04-02T12:59:48;26.50;26.50
71879;DHT22;59755;43.834;4.364;2023-04-02T13:02:18;26.90;26.20
71879;DHT22;59755;43.834;4.364;2023-04-02T13:04:47;26.40;26.70
71879;DHT22;59755;43.834;4.364;2023-04-02T13:07:15;26.50;26.30
71879;DHT22;59755;43.834;4.364;2023-04-02T13:09:43;27.10;25.90
71879;DHT22;59755;43.834;4.364;2023-04-02T13:15:06;25.40;27.40
71879;DHT22;59755;43.834;4.364;2023-04-02T13:17:45;27.40;25.80
71879;DHT22;59755;43.834;4.364;2023-04-02T13:20:28;28.00;25.00
71879;DHT22;59755;43.834;4.364;2023-04-02T13:22:55;24.40;28.30
71879;DHT22;59755;43.834;4.364;2023-04-02T13:25:23;23.60;29.70
71879;DHT22;59755;43.834;4.364;2023-04-02T13:27:51;25.20;27.90
71879;DHT22;59755;43.834;4.364;2023-04-02T13:30:19;25.10;28.10
71879;DHT22;59755;43.834;4.364;2023-04-02T13:32:46;26.30;27.10
71879;DHT22;59755;43.834;4.364;2023-04-02T13:35:12;26.20;27.00
71879;DHT22;59755;43.834;4.364;2023-04-02T13:37:37;25.20;27.90
71879;DHT22;59755;43.834;4.364;2023-04-02T13:40:03;24.80;28.50
71879;DHT22;59755;43.834;4.364;2023-04-02T13:42:29;24.30;29.00
71879;DHT22;59755;43.834;4.364;2023-04-02T13:44:55;23.60;29.70
71879;DHT22;59755;43.834;4.364;2023-04-02T13:47:20;23.50;29.70
71879;DHT22;59755;43.834;4.364;2023-04-02T13:49:46;23.50;29.90
71879;DHT22;59755;43.834;4.364;2023-04-02T13:52:12;24.90;28.10
71879;DHT22;59755;43.834;4.364;2023-04-02T13:57:10;27.50;25.50
71879;DHT22;59755;43.834;4.364;2023-04-02T13:59:36;27.50;25.30
71879;DHT22;59755;43.834;4.364;2023-04-02T14:02:03;28.20;25.00
71879;DHT22;59755;43.834;4.364;2023-04-02T14:04:34;28.10;25.00
71879;DHT22;59755;43.834;4.364;2023-04-02T14:28:03;23.70;29.00
71879;DHT22;59755;43.834;4.364;2023-04-02T14:30:35;22.40;30.80
71879;DHT22;59755;43.834;4.364;2023-04-02T14:38:05;20.60;33.20
71879;DHT22;59755;43.834;4.364;2023-04-02T14:40:46;20.60;33.30
71879;DHT22;59755;43.834;4.364;2023-04-02T14:50:43;23.30;29.90
71879;DHT22;59755;43.834;4.364;2023-04-02T14:53:46;24.40;28.60
71879;DHT22;59755;43.834;4.364;2023-04-02T14:56:02;24.80;27.90
71879;DHT22;59755;43.834;4.364;2023-04-02T14:58:32;22.50;30.40
71879;DHT22;59755;43.834;4.364;2023-04-02T15:01:00;23.10;29.70
71879;DHT22;59755;43.834;4.364;2023-04-02T15:03:28;23.80;29.20
71879;DHT22;59755;43.834;4.364;2023-04-02T15:05:57;24.20;28.60
71879;DHT22;59755;43.834;4.364;2023-04-02T15:11:00;24.10;28.60
71879;DHT22;59755;43.834;4.364;2023-04-02T15:14:10;23.30;29.40
71879;DHT22;59755;43.834;4.364;2023-04-02T15:18:43;23.00;29.90
71879;DHT22;59755;43.834;4.364;2023-04-02T15:21:23;21.50;31.50
71879;DHT22;59755;43.834;4.364;2023-04-02T15:26:26;20.30;33.00
71879;DHT22;59755;43.834;4.364;2023-04-02T15:29:07;20.20;33.30
71879;DHT22;59755;43.834;4.364;2023-04-02T15:31:35;20.10;33.70
71879;DHT22;59755;43.834;4.364;2023-04-02T15:39:02;19.90;34.20
71879;DHT22;59755;43.834;4.364;2023-04-02T15:41:46;19.50;34.90
71879;DHT22;59755;43.834;4.364;2023-04-02T15:44:14;19.40;35.30
71879;DHT22;59755;43.834;4.364;2023-04-02T15:51:58;19.30;35.40
71879;DHT22;59755;43.834;4.364;2023-04-02T15:59:46;18.90;36.00
71879;DHT22;59755;43.834;4.364;2023-04-02T16:10:34;18.70;36.70
71879;DHT22;59755;43.834;4.364;2023-04-02T16:13:00;18.50;37.30
71879;DHT22;59755;43.834;4.364;2023-04-02T16:15:29;18.20;37.50
71879;DHT22;59755;43.834;4.364;2023-04-02T16:17:57;18.20;37.70
71879;DHT22;59755;43.834;4.364;2023-04-02T16:20:31;18.00;38.00
71879;DHT22;59755;43.834;4.364;2023-04-02T16:22:59;18.00;38.10
71879;DHT22;59755;43.834;4.364;2023-04-02T16:25:28;17.90;38.30
71879;DHT22;59755;43.834;4.364;2023-04-02T16:27:59;17.90;38.50
71879;DHT22;59755;43.834;4.364;2023-04-02T16:38:11;17.70;38.90
71879;DHT22;59755;43.834;4.364;2023-04-02T16:43:16;17.60;38.30
71879;DHT22;59755;43.834;4.364;2023-04-02T16:50:37;17.30;38.70
71879;DHT22;59755;43.834;4.364;2023-04-02T16:55:48;17.30;38.80
71879;DHT22;59755;43.834;4.364;2023-04-02T17:00:52;17.20;39.20
71879;DHT22;59755;43.834;4.364;2023-04-02T17:03:34;17.20;39.40
71879;DHT22;59755;43.834;4.364;2023-04-02T17:06:05;17.10;39.40
71879;DHT22;59755;43.834;4.364;2023-04-02T17:11:04;17.10;39.60
71879;DHT22;59755;43.834;4.364;2023-04-02T17:18:42;17.20;40.40
71879;DHT22;59755;43.834;4.364;2023-04-02T17:21:09;17.10;40.70
71879;DHT22;59755;43.834;4.364;2023-04-02T17:26:30;17.00;41.00
71879;DHT22;59755;43.834;4.364;2023-04-02T17:28:58;17.00;41.10
71879;DHT22;59755;43.834;4.364;2023-04-02T17:31:25;16.80;41.50
71879;DHT22;59755;43.834;4.364;2023-04-02T17:33:51;16.70;41.70
71879;DHT22;59755;43.834;4.364;2023-04-02T17:48:51;16.50;42.00
71879;DHT22;59755;43.834;4.364;2023-04-02T17:54:20;16.20;42.50
71879;DHT22;59755;43.834;4.364;2023-04-02T18:01:58;16.10;42.70
71879;DHT22;59755;43.834;4.364;2023-04-02T18:07:02;16.00;42.80
71879;DHT22;59755;43.834;4.364;2023-04-02T18:12:15;15.80;43.00
71879;DHT22;59755;43.834;4.364;2023-04-02T18:17:33;15.70;43.20
71879;DHT22;59755;43.834;4.364;2023-04-02T18:20:02;15.70;43.40
71879;DHT22;59755;43.834;4.364;2023-04-02T18:22:35;15.70;43.40
71879;DHT22;59755;43.834;4.364;2023-04-02T18:25:09;15.50;43.70
71879;DHT22;59755;43.834;4.364;2023-04-02T18:38:02;15.20;44.50
71879;DHT22;59755;43.834;4.364;2023-04-02T18:45:53;15.00;44.90
71879;DHT22;59755;43.834;4.364;2023-04-02T18:50:49;15.00;45.20
71879;DHT22;59755;43.834;4.364;2023-04-02T18:53:19;14.90;45.30
71879;DHT22;59755;43.834;4.364;2023-04-02T18:58:28;14.90;45.40
71879;DHT22;59755;43.834;4.364;2023-04-02T19:00:55;14.80;45.60
71879;DHT22;59755;43.834;4.364;2023-04-02T19:03:34;14.80;45.60
71879;DHT22;59755;43.834;4.364;2023-04-02T19:06:03;14.80;45.70
71879;DHT22;59755;43.834;4.364;2023-04-02T19:08:34;14.70;45.80
71879;DHT22;59755;43.834;4.364;2023-04-02T19:11:03;14.60;46.10
71879;DHT22;59755;43.834;4.364;2023-04-02T19:13:29;14.60;46.20
71879;DHT22;59755;43.834;4.364;2023-04-02T19:18:33;14.60;46.50
71879;DHT22;59755;43.834;4.364;2023-04-02T19:21:08;14.50;46.70
71879;DHT22;59755;43.834;4.364;2023-04-02T19:26:06;14.50;46.80
71879;DHT22;59755;43.834;4.364;2023-04-02T19:28:38;14.50;46.80
71879;DHT22;59755;43.834;4.364;2023-04-02T19:31:09;14.40;47.10
71879;DHT22;59755;43.834;4.364;2023-04-02T19:43:50;14.30;47.50
71879;DHT22;59755;43.834;4.364;2023-04-02T19:46:17;14.30;47.60
71879;DHT22;59755;43.834;4.364;2023-04-02T19:48:53;14.20;47.70
71879;DHT22;59755;43.834;4.364;2023-04-02T19:51:22;14.20;47.80
71879;DHT22;59755;43.834;4.364;2023-04-02T19:53:48;14.20;47.70
71879;DHT22;59755;43.834;4.364;2023-04-02T19:56:13;14.20;47.80
71879;DHT22;59755;43.834;4.364;2023-04-02T19:58:39;14.20;48.10
71879;DHT22;59755;43.834;4.364;2023-04-02T20:01:04;14.10;48.00
71879;DHT22;59755;43.834;4.364;2023-04-02T20:03:30;14.10;48.20
71879;DHT22;59755;43.834;4.364;2023-04-02T20:05:56;14.00;48.30
71879;DHT22;59755;43.834;4.364;2023-04-02T20:08:24;14.00;48.20
71879;DHT22;59755;43.834;4.364;2023-04-02T20:10:50;14.10;48.10
71879;DHT22;59755;43.834;4.364;2023-04-02T20:13:15;14.00;48.30
71879;DHT22;59755;43.834;4.364;2023-04-02T20:15:41;13.90;48.40
71879;DHT22;59755;43.834;4.364;2023-04-02T20:18:07;13.90;48.50
71879;DHT22;59755;43.834;4.364;2023-04-02T20:20:34;14.00;48.50
71879;DHT22;59755;43.834;4.364;2023-04-02T20:23:00;13.90;48.60
71879;DHT22;59755;43.834;4.364;2023-04-02T20:25:26;13.80;48.80
71879;DHT22;59755;43.834;4.364;2023-04-02T20:27:51;13.80;48.80
71879;DHT22;59755;43.834;4.364;2023-04-02T20:30:17;13.80;48.70
71879;DHT22;59755;43.834;4.364;2023-04-02T20:32:42;13.80;48.80
71879;DHT22;59755;43.834;4.364;2023-04-02T20:35:08;13.90;48.70
71879;DHT22;59755;43.834;4.364;2023-04-02T20:37:33;13.90;48.60
71879;DHT22;59755;43.834;4.364;2023-04-02T20:39:59;13.80;48.70
71879;DHT22;59755;43.834;4.364;2023-04-02T20:42:25;13.80;48.60
71879;DHT22;59755;43.834;4.364;2023-04-02T20:44:51;13.90;48.60
71879;DHT22;59755;43.834;4.364;2023-04-02T20:47:16;13.80;48.90
71879;DHT22;59755;43.834;4.364;2023-04-02T20:49:42;13.80;48.80
71879;DHT22;59755;43.834;4.364;2023-04-02T20:52:08;13.80;48.80
71879;DHT22;59755;43.834;4.364;2023-04-02T20:54:34;13.80;49.00
71879;DHT22;59755;43.834;4.364;2023-04-02T20:56:59;13.70;49.20
71879;DHT22;59755;43.834;4.364;2023-04-02T20:59:25;13.70;49.10
71879;DHT22;59755;43.834;4.364;2023-04-02T21:01:51;13.70;49.10
71879;DHT22;59755;43.834;4.364;2023-04-02T21:04:17;13.70;49.00
71879;DHT22;59755;43.834;4.364;2023-04-02T21:06:42;13.70;49.00
71879;DHT22;59755;43.834;4.364;2023-04-02T21:09:15;13.60;49.20